Time;durP1;ratioP1;P1;durP2;ratioP2;P2;SDS_P1;SDS_P2;PMS_P1;PMS_P2;Temp;Humidity;BMP_temperature;BMP_pressure;BME280_temperature;BME280_humidity;BME280_pressure;Samples;Min_cycle;Max_cycle;Signal;HPM_P1;HPM_P2
2022/10/16 00:00:52;;;;;;;17.87;14.10;;;;;;;13.67;100.00;98927.15;1876160;95;21095;-88
2022/10/16 00:04:06;;;;;;;18.37;13.58;;;;;;;13.66;100.00;98926.34;1878824;93;21117;-87
2022/10/16 00:07:08;;;;;;;18.65;15.40;;;;;;;13.65;100.00;98929.98;1846737;96;21095;-87
2022/10/16 00:10:10;;;;;;;21.45;14.98;;;;;;;13.64;100.00;98929.67;1835157;92;21011;-87
2022/10/16 00:13:17;;;;;;;20.57;15.18;;;;;;;13.62;100.00;98934.32;1940057;90;21104;-88
2022/10/16 00:16:29;;;;;;;21.48;15.70;;;;;;;13.59;100.00;98941.77;1898969;94;21122;-91
2022/10/16 00:19:30;;;;;;;20.00;15.35;;;;;;;13.55;100.00;98940.04;1882249;94;21116;-90
2022/10/16 00:22:30;;;;;;;20.52;15.70;;;;;;;13.53;100.00;98947.80;1902401;94;21094;-89
2022/10/16 00:25:32;;;;;;;21.60;15.30;;;;;;;13.49;100.00;98951.83;1900562;94;21100;-88
2022/10/16 00:28:33;;;;;;;22.30;14.98;;;;;;;13.48;100.00;98956.28;1900320;94;21108;-91
2022/10/16 00:31:34;;;;;;;19.82;14.60;;;;;;;13.48;100.00;98954.96;1883459;94;21106;-91
2022/10/16 00:34:35;;;;;;;17.42;14.18;;;;;;;13.49;100.00;98953.95;1869917;94;21149;-89
2022/10/16 00:37:36;;;;;;;16.87;13.75;;;;;;;13.53;100.00;98959.16;1870270;95;21096;-92
2022/10/16 00:40:36;;;;;;;19.95;15.03;;;;;;;13.56;100.00;98964.02;1907340;91;21052;-89
2022/10/16 00:43:39;;;;;;;19.37;15.80;;;;;;;13.60;100.00;98957.36;1962444;91;21083;-87
2022/10/16 00:46:43;;;;;;;19.37;14.68;;;;;;;13.61;100.00;98956.35;1939787;91;21090;-90
2022/10/16 00:49:44;;;;;;;20.10;16.30;;;;;;;13.63;100.00;98956.18;1937927;91;21047;-91
2022/10/16 00:52:45;;;;;;;18.62;14.87;;;;;;;13.61;100.00;98951.09;1981016;90;21570;-88
2022/10/16 00:55:50;;;;;;;18.15;13.75;;;;;;;13.63;100.00;98954.36;1974116;89;21538;-89
2022/10/16 00:58:51;;;;;;;15.83;12.47;;;;;;;13.63;100.00;98949.61;1962877;91;21141;-90
2022/10/16 01:01:57;;;;;;;15.15;12.90;;;;;;;13.65;100.00;98941.82;1960123;91;21080;-87
2022/10/16 01:05:22;;;;;;;16.20;12.98;;;;;;;13.65;100.00;98945.77;1824174;95;21096;-87
2022/10/16 01:08:35;;;;;;;18.80;13.93;;;;;;;13.68;100.00;98947.19;1786477;99;21132;-87
2022/10/16 01:11:39;;;;;;;18.67;14.28;;;;;;;13.71;100.00;98948.11;1750286;102;21099;-87
2022/10/16 01:22:28;;;;;;;18.87;14.73;;;;;;;13.68;100.00;98956.91;1762213;101;21119;-86
2022/10/16 01:25:53;;;;;;;18.27;13.58;;;;;;;13.66;100.00;98961.05;1718723;104;21124;-85
2022/10/16 01:29:21;;;;;;;17.82;14.03;;;;;;;13.65;100.00;98960.74;1693081;105;21278;-85
2022/10/16 01:50:39;;;;;;;15.48;13.60;;;;;;;13.78;100.00;98970.02;1821922;96;21086;-85
2022/10/16 02:11:55;;;;;;;17.87;14.07;;;;;;;13.73;100.00;98974.25;1842213;95;21729;-87
2022/10/16 02:14:56;;;;;;;18.62;14.90;;;;;;;13.64;100.00;98973.59;1843807;95;21155;-87
2022/10/16 02:17:59;;;;;;;19.77;13.98;;;;;;;13.55;100.00;98978.69;1846695;94;21173;-87
2022/10/16 02:21:07;;;;;;;17.50;13.03;;;;;;;13.45;100.00;98977.72;1772165;101;21609;-86
2022/10/16 02:24:14;;;;;;;18.30;14.38;;;;;;;13.33;100.00;98975.27;1796906;99;21194;-86
2022/10/16 02:27:38;;;;;;;17.52;12.65;;;;;;;13.25;100.00;98975.41;1742178;101;21137;-86
2022/10/16 02:38:11;;;;;;;20.50;14.07;;;;;;;12.96;100.00;98972.41;1724421;102;21195;-86
2022/10/16 02:41:39;;;;;;;;;;;;;;;12.86;100.00;98975.84;1687291;106;21140;-86
2022/10/16 02:48:21;;;;;;;27.48;15.75;;;;;;;12.62;100.00;98987.05;1664009;107;21239;-87
2022/10/16 02:51:22;;;;;;;17.40;14.05;;;;;;;12.45;100.00;98990.39;1662989;107;21169;-88
2022/10/16 02:54:24;;;;;;;19.65;15.40;;;;;;;12.34;100.00;98994.78;1660765;104;21118;-89
2022/10/16 02:57:24;;;;;;;20.37;14.90;;;;;;;12.25;100.00;98989.31;1744371;96;21123;-87
2022/10/16 03:00:28;;;;;;;19.95;15.55;;;;;;;12.17;100.00;98990.26;1851665;96;21066;-87
2022/10/16 03:03:28;;;;;;;18.95;14.60;;;;;;;12.07;100.00;98998.91;1851558;96;21158;-86
2022/10/16 03:06:28;;;;;;;20.10;15.70;;;;;;;12.00;100.00;98999.31;1833130;96;21070;-87
2022/10/16 03:09:29;;;;;;;19.77;15.20;;;;;;;11.94;100.00;98992.16;1853125;96;21124;-87
2022/10/16 03:12:30;;;;;;;17.10;13.68;;;;;;;11.92;100.00;98996.28;1854116;95;21131;-87
2022/10/16 03:15:31;;;;;;;19.98;15.72;;;;;;;11.90;100.00;98994.34;1879945;95;21088;-87
2022/10/16 03:18:31;;;;;;;21.97;15.30;;;;;;;11.88;100.00;98998.12;1917250;92;20987;-87
2022/10/16 03:21:32;;;;;;;19.95;15.40;;;;;;;11.88;100.00;99001.55;2067794;85;21000;-87
2022/10/16 03:24:33;;;;;;;19.35;14.20;;;;;;;11.88;100.00;98998.12;2080142;85;21040;-87
2022/10/16 03:27:33;;;;;;;21.48;16.15;;;;;;;11.90;100.00;99000.90;2078538;84;21063;-86
2022/10/16 03:30:34;;;;;;;16.67;13.90;;;;;;;11.91;100.00;99005.15;2081921;86;21023;-84
2022/10/16 03:33:35;;;;;;;19.37;15.05;;;;;;;11.94;100.00;99002.66;2072861;83;21016;-84
2022/10/16 03:36:36;;;;;;;23.10;14.70;;;;;;;11.99;100.00;99005.56;2154287;83;21079;-86
2022/10/16 03:39:37;;;;;;;22.30;14.83;;;;;;;12.04;100.00;99009.75;2153753;83;20980;-87
2022/10/16 03:42:37;;;;;;;25.52;15.90;;;;;;;12.09;100.00;99010.03;2153709;83;20995;-85
2022/10/16 03:45:38;;;;;;;19.40;14.63;;;;;;;12.14;100.00;99014.72;2153488;83;21076;-87
2022/10/16 03:48:39;;;;;;;19.23;15.32;;;;;;;12.17;100.00;99019.13;2120405;83;21009;-85
2022/10/16 03:51:40;;;;;;;21.00;15.43;;;;;;;12.23;100.00;99013.13;2153374;83;20992;-85
2022/10/16 03:54:41;;;;;;;21.80;16.02;;;;;;;12.26;100.00;99017.23;2153580;83;20988;-85
2022/10/16 03:57:42;;;;;;;22.37;16.05;;;;;;;12.32;100.00;99027.48;2153640;83;21014;-86
2022/10/16 04:00:42;;;;;;;20.30;15.40;;;;;;;12.38;100.00;99028.88;2153627;83;20972;-87
2022/10/16 04:03:43;;;;;;;21.95;15.25;;;;;;;12.44;100.00;99030.78;2121041;83;20976;-86
2022/10/16 04:06:44;;;;;;;18.15;14.50;;;;;;;12.49;100.00;99034.16;2153679;83;21476;-86
2022/10/16 04:09:45;;;;;;;22.40;15.45;;;;;;;12.53;100.00;99034.13;2153798;83;21025;-86
2022/10/16 04:12:45;;;;;;;19.17;14.58;;;;;;;12.58;100.00;99034.37;2121180;83;21582;-87
2022/10/16 04:15:46;;;;;;;19.10;14.18;;;;;;;12.61;100.00;99039.73;2121360;83;20992;-86
2022/10/16 04:18:47;;;;;;;18.73;15.32;;;;;;;12.62;100.00;99039.58;2154134;83;20956;-86
2022/10/16 04:21:47;;;;;;;21.45;15.70;;;;;;;12.61;100.00;99043.69;2153772;83;20964;-87
2022/10/16 04:24:48;;;;;;;20.40;15.48;;;;;;;12.58;100.00;99051.44;2153683;83;20952;-86
2022/10/16 04:27:49;;;;;;;21.15;15.23;;;;;;;12.56;100.00;99046.06;2153692;83;21008;-87
2022/10/16 04:30:50;;;;;;;18.00;14.40;;;;;;;12.51;100.00;99045.28;2153577;82;21003;-87
2022/10/16 04:33:51;;;;;;;19.48;16.23;;;;;;;12.48;100.00;99045.16;2122388;83;21012;-86
2022/10/16 04:40:02;;;;;;;17.75;15.13;;;;;;;12.36;100.00;99041.89;2131314;78;21091;-86
2022/10/16 04:43:03;;;;;;;21.48;15.58;;;;;;;12.22;100.00;99040.39;2129926;83;20974;-89
2022/10/16 04:46:04;;;;;;;19.92;15.23;;;;;;;12.13;100.00;99045.41;2129926;83;21058;-87
2022/10/16 04:49:05;;;;;;;24.32;17.52;;;;;;;12.03;100.00;99042.24;2103928;84;20993;-87
2022/10/16 04:52:06;;;;;;;18.57;15.70;;;;;;;11.94;100.00;99045.45;2129585;84;20998;-87
2022/10/16 04:55:08;;;;;;;18.92;15.88;;;;;;;11.84;100.00;99044.91;2129639;83;21084;-86
2022/10/16 04:58:12;;;;;;;20.05;17.40;;;;;;;11.74;100.00;99035.64;2104409;84;21005;-87
2022/10/16 05:01:38;;;;;;;21.02;16.67;;;;;;;11.71;100.00;99048.63;2063174;86;21102;-88
2022/10/16 05:04:45;;;;;;;19.80;16.15;;;;;;;11.61;100.00;99046.72;2063070;85;21083;-87
2022/10/16 05:11:34;;;;;;;23.38;17.77;;;;;;;11.45;100.00;99048.20;2062482;86;21056;-87
2022/10/16 05:18:12;;;;;;;28.00;18.30;;;;;;;11.40;100.00;99053.45;2032306;88;21108;-86
2022/10/16 05:21:37;;;;;;;23.87;19.62;;;;;;;11.38;100.00;99041.53;2048860;87;21094;-86
2022/10/16 05:28:25;;;;;;;22.37;17.82;;;;;;;11.35;100.00;99046.63;1996270;88;21133;-87
2022/10/16 05:41:52;;;;;;;23.87;18.02;;;;;;;11.51;100.00;99055.34;1984805;88;21213;-86
2022/10/16 05:45:00;;;;;;;25.68;18.57;;;;;;;11.59;100.00;99055.27;1904302;94;21127;-87
2022/10/16 05:48:10;;;;;;;24.30;19.17;;;;;;;11.68;100.00;99060.77;1903457;94;21150;-87
2022/10/16 05:51:30;;;;;;;32.23;19.77;;;;;;;11.78;100.00;99056.57;1888070;92;21146;-87
2022/10/16 05:54:41;;;;;;;24.05;17.73;;;;;;;11.93;100.00;99051.70;1861257;94;21122;-86
2022/10/16 05:57:56;;;;;;;23.95;18.30;;;;;;;12.07;100.00;99059.28;1885378;93;21404;-89
2022/10/16 06:00:47;;;;;;;21.20;16.80;;;;;;;12.21;100.00;99062.39;1884838;93;21141;-90
2022/10/16 06:03:47;;;;;;;22.45;17.55;;;;;;;12.35;100.00;99063.39;1883851;95;21057;-91
2022/10/16 06:06:48;;;;;;;22.25;16.50;;;;;;;12.55;100.00;99072.83;1883766;93;21065;-91
2022/10/16 06:09:49;;;;;;;22.25;16.45;;;;;;;12.70;100.00;99081.98;1883937;95;21653;-91
2022/10/16 06:12:50;;;;;;;23.32;17.25;;;;;;;12.91;100.00;99090.44;1884259;95;21125;-90
2022/10/16 06:15:51;;;;;;;23.70;17.30;;;;;;;13.10;100.00;99102.98;1981859;87;21057;-92
2022/10/16 06:18:52;;;;;;;19.25;15.58;;;;;;;13.26;100.00;99102.78;2000062;89;21063;-90
2022/10/16 06:21:52;;;;;;;16.60;14.75;;;;;;;13.38;100.00;99113.61;2036915;87;21104;-86
2022/10/16 06:24:53;;;;;;;18.15;14.85;;;;;;;13.52;100.00;99125.05;2073293;85;21531;-89
2022/10/16 06:27:54;;;;;;;17.30;14.95;;;;;;;13.60;100.00;99127.05;2139331;83;21500;-90
2022/10/16 06:30:54;;;;;;;16.30;12.82;;;;;;;13.70;100.00;99132.00;2137156;83;20981;-87
2022/10/16 06:33:56;;;;;;;15.65;12.65;;;;;;;13.81;100.00;99126.75;2136323;83;21485;-92
2022/10/16 06:36:56;;;;;;;18.73;12.90;;;;;;;13.90;100.00;99134.31;2135940;83;21043;-89
2022/10/16 06:39:57;;;;;;;17.35;14.25;;;;;;;13.99;100.00;99140.26;2137977;83;21513;-88
2022/10/16 06:42:58;;;;;;;17.27;13.58;;;;;;;14.07;100.00;99137.96;2108173;83;20997;-89
2022/10/16 06:45:59;;;;;;;16.80;14.30;;;;;;;14.11;100.00;99139.22;2111248;84;21043;-90
2022/10/16 06:48:59;;;;;;;16.90;13.68;;;;;;;14.19;100.00;99143.03;2111164;84;20961;-88
2022/10/16 06:52:01;;;;;;;17.20;13.80;;;;;;;14.22;100.00;99145.27;2111131;84;21000;-92
2022/10/16 06:55:02;;;;;;;16.62;13.30;;;;;;;14.28;100.00;99147.65;2110218;84;21031;-92
2022/10/16 06:58:03;;;;;;;16.30;12.53;;;;;;;14.34;100.00;99152.12;2089807;84;21092;-89
2022/10/16 07:01:04;;;;;;;16.40;12.53;;;;;;;14.43;100.00;99152.28;2109822;84;21008;-89
2022/10/16 07:04:05;;;;;;;14.33;12.88;;;;;;;14.55;100.00;99149.98;2110007;84;20952;-90
2022/10/16 07:07:05;;;;;;;13.65;12.25;;;;;;;14.67;100.00;99151.86;2110533;84;21035;-89
2022/10/16 07:10:06;;;;;;;16.15;14.18;;;;;;;14.84;100.00;99150.22;2109616;84;21556;-88
2022/10/16 07:13:07;;;;;;;13.75;12.35;;;;;;;14.96;100.00;99153.91;2110099;84;20984;-88
2022/10/16 07:16:09;;;;;;;15.43;12.55;;;;;;;15.11;100.00;99151.95;2109636;84;21095;-88
2022/10/16 07:19:14;;;;;;;14.23;12.73;;;;;;;15.25;100.00;99156.23;2080740;84;21103;-87
2022/10/16 07:22:14;;;;;;;14.35;12.25;;;;;;;15.39;100.00;99154.97;2101954;84;21527;-87
2022/10/16 07:25:15;;;;;;;15.85;13.70;;;;;;;15.52;100.00;99160.26;2108889;84;21052;-88
2022/10/16 07:28:16;;;;;;;17.67;12.80;;;;;;;15.67;100.00;99160.12;2109443;84;21471;-89
2022/10/16 07:31:17;;;;;;;15.35;12.30;;;;;;;15.81;100.00;99158.59;2109684;84;21053;-88
2022/10/16 07:34:18;;;;;;;14.90;11.90;;;;;;;15.96;100.00;99162.36;2109854;84;21023;-87
2022/10/16 07:37:19;;;;;;;14.20;11.73;;;;;;;16.08;100.00;99162.05;2109869;84;21003;-89
2022/10/16 07:40:19;;;;;;;13.58;11.95;;;;;;;16.19;100.00;99164.61;2109446;84;20988;-86
2022/10/16 07:43:20;;;;;;;13.70;12.30;;;;;;;16.30;100.00;99163.17;2139155;83;21014;-85
2022/10/16 07:46:21;;;;;;;17.15;12.07;;;;;;;16.36;100.00;99181.64;2142663;83;21002;-85
2022/10/16 07:49:21;;;;;;;13.70;12.05;;;;;;;16.47;100.00;99182.35;2140580;83;21037;-86
2022/10/16 07:52:22;;;;;;;14.45;12.85;;;;;;;16.57;100.00;99182.44;2138964;83;21027;-87
2022/10/16 07:55:23;;;;;;;15.75;12.60;;;;;;;16.66;100.00;99188.62;2139194;83;20998;-87
2022/10/16 07:58:24;;;;;;;16.60;12.20;;;;;;;16.75;100.00;99195.85;2138669;83;21092;-88
2022/10/16 08:01:24;;;;;;;14.93;11.78;;;;;;;16.83;100.00;99202.75;2138908;83;21523;-87
2022/10/16 08:04:25;;;;;;;13.65;11.45;;;;;;;16.93;100.00;99198.64;2139138;83;21025;-87
2022/10/16 08:07:26;;;;;;;17.17;12.47;;;;;;;17.01;100.00;99201.57;2139013;83;21006;-88
2022/10/16 08:10:26;;;;;;;15.30;11.88;;;;;;;17.13;100.00;99200.40;2139012;83;20978;-87
2022/10/16 08:13:27;;;;;;;11.73;10.45;;;;;;;17.22;100.00;99200.47;2138823;83;21109;-87
2022/10/16 08:16:28;;;;;;;13.05;11.65;;;;;;;17.29;100.00;99195.96;2138566;83;21078;-87
2022/10/16 08:19:31;;;;;;;15.48;12.13;;;;;;;17.36;100.00;99194.07;2138283;83;21040;-87
2022/10/16 08:22:31;;;;;;;14.10;10.93;;;;;;;17.43;100.00;99205.95;2139088;83;21672;-87
2022/10/16 08:25:32;;;;;;;12.37;11.05;;;;;;;17.53;100.00;99211.59;2138979;83;20994;-88
2022/10/16 08:28:33;;;;;;;13.72;10.93;;;;;;;17.57;100.00;99219.43;2139877;83;21021;-86
2022/10/16 08:31:37;;;;;;;19.35;11.22;;;;;;;17.62;100.00;99224.37;2140773;83;21050;-86
2022/10/16 08:34:36;;;;;;;14.07;10.23;;;;;;;17.70;100.00;99220.70;2139264;83;21050;-88
2022/10/16 08:37:37;;;;;;;13.00;11.28;;;;;;;17.76;100.00;99218.53;2139592;83;21029;-89
2022/10/16 08:40:40;;;;;;;11.53;10.35;;;;;;;17.82;100.00;99215.52;2138733;83;21101;-90
2022/10/16 08:43:41;;;;;;;13.78;11.73;;;;;;;17.84;100.00;99210.33;2140509;83;21018;-88
2022/10/16 08:46:41;;;;;;;15.68;11.65;;;;;;;17.88;100.00;99212.84;2142225;83;21066;-88
2022/10/16 08:49:42;;;;;;;12.18;10.35;;;;;;;17.96;100.00;99207.80;2140270;83;21042;-91
2022/10/16 08:52:43;;;;;;;14.50;10.45;;;;;;;18.09;100.00;99206.88;2139642;83;21030;-89
2022/10/16 08:55:44;;;;;;;16.07;10.70;;;;;;;18.17;100.00;99207.41;2139285;83;21073;-90
2022/10/16 08:58:44;;;;;;;14.38;10.00;;;;;;;18.31;100.00;99207.32;2139329;83;20991;-87
2022/10/16 09:01:45;;;;;;;11.45;10.25;;;;;;;18.42;100.00;99208.73;2139259;83;21010;-87
2022/10/16 09:04:46;;;;;;;13.40;10.95;;;;;;;18.56;100.00;99212.09;2139387;83;21021;-90
2022/10/16 09:07:47;;;;;;;11.12;9.75;;;;;;;18.72;100.00;99206.73;2139068;82;20966;-88
2022/10/16 09:10:47;;;;;;;11.80;9.95;;;;;;;18.83;100.00;99203.34;2139885;83;21041;-90
2022/10/16 09:13:49;;;;;;;12.05;10.68;;;;;;;18.91;100.00;99203.57;2139956;83;21083;-87
2022/10/16 09:16:50;;;;;;;12.58;9.68;;;;;;;18.96;100.00;99208.52;2113886;83;21613;-86
2022/10/16 09:19:50;;;;;;;10.50;9.55;;;;;;;19.02;100.00;99215.60;2139849;83;20986;-84
2022/10/16 09:22:51;;;;;;;14.87;12.68;;;;;;;19.11;100.00;99213.46;2139706;83;21073;-87
2022/10/16 09:25:52;;;;;;;14.05;10.15;;;;;;;19.23;100.00;99220.16;2138572;83;21030;-89
2022/10/16 09:28:53;;;;;;;11.35;10.25;;;;;;;19.32;100.00;99221.47;2138833;82;20990;-84
2022/10/16 09:31:53;;;;;;;12.73;11.38;;;;;;;19.40;100.00;99223.81;2138941;83;21017;-86
2022/10/16 09:34:56;;;;;;;11.30;10.20;;;;;;;19.46;100.00;99228.20;2138760;83;21030;-89
2022/10/16 09:37:56;;;;;;;10.98;9.85;;;;;;;19.53;100.00;99222.30;2139354;83;21554;-88
2022/10/16 09:40:57;;;;;;;14.00;11.68;;;;;;;19.58;100.00;99228.31;2139441;83;20998;-89
2022/10/16 09:43:58;;;;;;;14.20;11.57;;;;;;;19.69;100.00;99235.50;2139396;83;21104;-89
2022/10/16 09:46:59;;;;;;;13.05;11.18;;;;;;;19.79;100.00;99234.44;2139902;83;21002;-84
2022/10/16 09:50:01;;;;;;;14.63;11.00;;;;;;;19.83;100.00;99228.95;2114849;83;21521;-84
2022/10/16 09:53:02;;;;;;;12.65;10.03;;;;;;;19.89;100.00;99232.56;2141855;83;21101;-85
2022/10/16 09:56:05;;;;;;;12.45;10.98;;;;;;;19.97;100.00;99230.91;2140676;83;20998;-84
2022/10/16 09:59:07;;;;;;;12.10;9.55;;;;;;;20.01;100.00;99228.07;2014428;88;21069;-87
2022/10/16 10:02:08;;;;;;;14.15;11.25;;;;;;;20.01;100.00;99229.92;2005716;89;21079;-85
2022/10/16 10:05:09;;;;;;;15.30;10.50;;;;;;;19.99;100.00;99229.34;2006466;89;21045;-86
2022/10/16 10:08:09;;;;;;;13.75;10.60;;;;;;;20.01;100.00;99228.59;2007747;89;21096;-83
2022/10/16 10:11:12;;;;;;;11.93;10.72;;;;;;;20.01;100.00;99228.07;1983104;89;21113;-88
2022/10/16 10:14:12;;;;;;;13.65;10.63;;;;;;;20.04;100.00;99225.50;2007760;89;20977;-86
2022/10/16 10:17:13;;;;;;;11.20;10.10;;;;;;;20.05;100.00;99225.78;2007257;89;21568;-88
2022/10/16 10:20:14;;;;;;;10.63;9.40;;;;;;;20.07;100.00;99231.67;2008520;89;21010;-86
2022/10/16 10:23:15;;;;;;;16.37;10.90;;;;;;;20.10;100.00;99229.36;2007673;89;21046;-89
2022/10/16 10:26:16;;;;;;;11.78;9.68;;;;;;;20.15;100.00;99230.02;2007557;89;21089;-89
2022/10/16 10:29:16;;;;;;;10.68;9.28;;;;;;;20.14;100.00;99223.09;2006305;89;21046;-85
2022/10/16 10:32:17;;;;;;;10.28;9.13;;;;;;;20.15;100.00;99218.05;2006890;89;21584;-84
2022/10/16 10:35:18;;;;;;;12.30;8.75;;;;;;;20.18;100.00;99216.25;2007176;89;21152;-84
2022/10/16 10:38:19;;;;;;;9.53;8.60;;;;;;;20.21;100.00;99212.32;2007763;89;21073;-84
2022/10/16 10:41:19;;;;;;;11.20;9.20;;;;;;;20.22;100.00;99204.14;2007004;89;21619;-84
2022/10/16 10:44:20;;;;;;;10.28;8.08;;;;;;;20.24;100.00;99204.71;2005170;88;21659;-85
2022/10/16 10:47:21;;;;;;;9.10;7.15;;;;;;;20.29;100.00;99209.33;2000627;88;21031;-85
2022/10/16 10:50:22;;;;;;;7.62;6.83;;;;;;;20.31;100.00;99204.09;2001493;88;21064;-85
2022/10/16 10:53:23;;;;;;;7.10;6.40;;;;;;;20.32;100.00;99204.38;2002735;88;20999;-86
2022/10/16 10:56:23;;;;;;;8.88;6.60;;;;;;;20.34;100.00;99210.79;2081325;84;21027;-87
2022/10/16 10:59:24;;;;;;;8.50;6.80;;;;;;;20.37;100.00;99208.47;2105454;84;20981;-88
2022/10/16 11:02:25;;;;;;;7.75;6.72;;;;;;;20.40;100.00;99209.88;2104295;84;21005;-88
2022/10/16 11:05:26;;;;;;;9.75;6.78;;;;;;;20.49;100.00;99215.69;2104359;85;20984;-88
2022/10/16 11:08:26;;;;;;;7.83;7.05;;;;;;;20.61;100.00;99214.63;2104421;84;21021;-87
2022/10/16 11:11:27;;;;;;;7.53;6.87;;;;;;;20.74;100.00;99207.72;2104470;84;21051;-89
2022/10/16 11:14:28;;;;;;;7.95;7.17;;;;;;;20.89;100.00;99213.09;2103988;85;21072;-88
2022/10/16 11:17:29;;;;;;;7.87;6.80;;;;;;;21.08;100.00;99209.23;2104001;84;21039;-87
2022/10/16 11:20:30;;;;;;;8.60;6.20;;;;;;;21.23;100.00;99202.89;2103703;84;21004;-86
2022/10/16 11:23:31;;;;;;;7.35;6.60;;;;;;;21.48;100.00;99193.25;2103735;84;21021;-86
2022/10/16 11:26:31;;;;;;;7.70;6.67;;;;;;;21.48;100.00;99193.25;2103720;85;21139;-88
2022/10/16 11:29:33;;;;;;;8.23;7.45;;;;;;;21.65;100.00;99203.14;2103659;84;20961;-85
2022/10/16 11:32:34;;;;;;;9.25;7.97;;;;;;;21.71;100.00;99210.19;2104110;84;21096;-87
2022/10/16 11:35:34;;;;;;;10.78;8.53;;;;;;;21.75;100.00;99211.31;2103859;84;20984;-87
2022/10/16 11:38:35;;;;;;;10.82;8.33;;;;;;;21.77;100.00;99212.70;2103766;85;21012;-87
2022/10/16 11:41:36;;;;;;;12.07;8.15;;;;;;;21.76;100.00;99213.76;2103842;85;21028;-88
2022/10/16 11:44:36;;;;;;;8.28;7.47;;;;;;;21.76;100.00;99213.76;2114235;83;21013;-85
2022/10/16 11:47:37;;;;;;;14.80;11.30;;;;;;;21.70;100.00;99217.90;2153627;83;20993;-86
2022/10/16 11:50:38;;;;;;;18.50;11.83;;;;;;;21.69;100.00;99217.62;2148598;82;21001;-84
2022/10/16 11:53:39;;;;;;;27.90;16.45;;;;;;;21.69;100.00;99222.42;2143126;83;21057;-85
2022/10/16 11:56:39;;;;;;;27.87;18.62;;;;;;;21.75;100.00;99224.64;2142467;83;20986;-86
2022/10/16 11:59:40;;;;;;;18.95;14.20;;;;;;;21.80;100.00;99219.41;2141086;83;20963;-87
2022/10/16 12:02:41;;;;;;;15.55;11.18;;;;;;;21.88;100.00;99218.21;2141097;82;20951;-86
2022/10/16 12:08:46;;;;;;;8.20;6.78;;;;;;;22.00;100.00;99221.08;2079012;86;21065;-86
2022/10/16 12:11:46;;;;;;;15.63;8.28;;;;;;;22.01;100.00;99221.36;2080052;86;21009;-88
2022/10/16 12:14:47;;;;;;;12.23;7.87;;;;;;;22.08;100.00;99217.24;2079202;86;21080;-86
2022/10/16 12:17:48;;;;;;;7.05;6.35;;;;;;;22.09;100.00;99217.52;2078709;86;21270;-88
2022/10/16 12:20:49;;;;;;;7.67;5.65;;;;;;;22.09;100.00;99219.66;2078790;86;21025;-87
2022/10/16 12:23:49;;;;;;;8.73;6.03;;;;;;;22.12;100.00;99217.03;2079306;86;21547;-84
2022/10/16 12:26:50;;;;;;;8.25;6.22;;;;;;;22.13;100.00;99218.67;2080517;86;21021;-84
2022/10/16 12:29:51;;;;;;;7.12;6.33;;;;;;;22.10;100.00;99217.80;2079117;86;21021;-86
2022/10/16 12:32:52;;;;;;;7.95;6.87;;;;;;;22.06;100.00;99212.66;2079159;86;21603;-85
2022/10/16 12:35:53;;;;;;;5.87;5.30;;;;;;;22.00;100.00;99219.75;2078957;86;21005;-85
2022/10/16 12:38:53;;;;;;;5.42;5.00;;;;;;;21.93;100.00;99220.95;2078982;86;21045;-86
2022/10/16 12:41:54;;;;;;;6.08;5.47;;;;;;;21.86;100.00;99221.93;2078996;86;21549;-85
2022/10/16 12:44:55;;;;;;;7.20;6.15;;;;;;;21.88;100.00;99224.35;2081208;85;21611;-83
2022/10/16 12:47:56;;;;;;;6.87;6.17;;;;;;;21.85;100.00;99232.80;2079602;86;20990;-85
2022/10/16 12:50:56;;;;;;;5.85;5.35;;;;;;;21.84;100.00;99233.33;2079018;86;20994;-86
2022/10/16 12:53:57;;;;;;;6.60;6.00;;;;;;;21.85;100.00;99232.80;2080137;86;21048;-83
2022/10/16 12:56:58;;;;;;;7.78;6.47;;;;;;;21.73;100.00;99240.06;2081770;86;21017;-83
2022/10/16 12:59:59;;;;;;;11.85;8.55;;;;;;;21.63;100.00;99244.69;2080915;86;21077;-84
2022/10/16 13:03:00;;;;;;;13.05;7.95;;;;;;;21.53;100.00;99240.50;2079523;86;21002;-85
2022/10/16 13:06:01;;;;;;;8.05;7.25;;;;;;;21.48;100.00;99235.87;2125609;83;21098;-85
2022/10/16 13:09:01;;;;;;;8.83;7.97;;;;;;;21.48;100.00;99238.53;2140997;83;21517;-86
2022/10/16 13:12:02;;;;;;;9.43;8.38;;;;;;;21.48;100.00;99240.39;2140858;82;20979;-87
2022/10/16 13:15:03;;;;;;;10.88;8.65;;;;;;;21.48;100.00;99241.20;2140957;83;21007;-86
2022/10/16 13:18:04;;;;;;;8.78;7.97;;;;;;;21.44;100.00;99234.73;2140909;83;21088;-87
2022/10/16 13:21:04;;;;;;;9.53;7.83;;;;;;;21.49;100.00;99242.03;2141030;83;21526;-86
2022/10/16 13:24:05;;;;;;;9.80;8.18;;;;;;;21.54;100.00;99240.78;2140960;82;21053;-86
2022/10/16 13:27:06;;;;;;;9.30;8.30;;;;;;;21.52;100.00;99241.02;2140994;83;20990;-86
2022/10/16 13:30:07;;;;;;;13.30;9.25;;;;;;;21.49;100.00;99235.38;2140870;83;20971;-86
2022/10/16 13:33:08;;;;;;;10.08;8.98;;;;;;;21.43;100.00;99238.45;2140852;83;21544;-87
2022/10/16 13:36:08;;;;;;;10.68;9.03;;;;;;;21.32;100.00;99231.32;2118651;83;21569;-87
2022/10/16 13:39:09;;;;;;;10.60;9.50;;;;;;;21.21;100.00;99234.77;2140949;83;21029;-86
2022/10/16 13:42:10;;;;;;;12.35;10.35;;;;;;;21.09;100.00;99239.33;2140937;83;21581;-86
2022/10/16 13:45:11;;;;;;;17.98;13.10;;;;;;;20.92;100.00;99249.36;2140982;82;21044;-86
2022/10/16 13:48:12;;;;;;;17.77;14.07;;;;;;;20.77;100.00;99248.23;2141057;83;21029;-86
2022/10/16 13:51:13;;;;;;;13.85;11.05;;;;;;;20.63;100.00;99247.65;2141021;83;21022;-86
2022/10/16 13:54:13;;;;;;;18.52;9.95;;;;;;;20.49;100.00;99250.27;2141967;83;21013;-84
2022/10/16 13:57:14;;;;;;;14.25;10.23;;;;;;;20.41;100.00;99255.38;2143063;83;20983;-85
2022/10/16 14:00:15;;;;;;;12.35;10.13;;;;;;;20.32;100.00;99256.23;2143754;83;21132;-84
2022/10/16 14:03:16;;;;;;;11.70;9.80;;;;;;;20.27;100.00;99253.95;2141778;83;21174;-86
2022/10/16 14:06:17;;;;;;;15.90;11.10;;;;;;;20.23;100.00;99258.93;2141159;82;20998;-87
2022/10/16 14:09:18;;;;;;;16.35;14.07;;;;;;;20.22;100.00;99266.62;2141087;83;21082;-86
2022/10/16 14:12:19;;;;;;;12.05;10.53;;;;;;;20.20;100.00;99264.69;2140798;83;22006;-86
2022/10/16 14:15:20;;;;;;;12.40;10.48;;;;;;;20.18;100.00;99270.23;2141729;83;20974;-87
2022/10/16 14:18:20;;;;;;;10.98;9.78;;;;;;;20.17;100.00;99268.62;2141569;82;20990;-85
2022/10/16 14:21:21;;;;;;;16.02;10.35;;;;;;;20.16;100.00;99267.00;2141645;82;21666;-85
2022/10/16 14:24:22;;;;;;;12.70;9.53;;;;;;;20.14;100.00;99265.62;2141559;82;21026;-85
2022/10/16 14:27:23;;;;;;;16.42;11.48;;;;;;;20.12;100.00;99275.16;2141593;83;21002;-84
2022/10/16 14:30:24;;;;;;;12.13;10.88;;;;;;;20.10;100.00;99269.75;2141961;83;21114;-85
2022/10/16 14:33:25;;;;;;;12.58;10.60;;;;;;;20.07;100.00;99267.03;2141274;83;21517;-86
2022/10/16 14:36:25;;;;;;;14.13;11.43;;;;;;;20.06;100.00;99265.94;2141053;83;21025;-85
2022/10/16 14:39:26;;;;;;;15.55;12.60;;;;;;;20.03;100.00;99268.55;2141080;82;20974;-86
2022/10/16 14:42:27;;;;;;;13.65;11.33;;;;;;;20.00;100.00;99268.17;2140865;83;21109;-86
2022/10/16 14:45:28;;;;;;;16.85;10.82;;;;;;;19.97;100.00;99273.42;2140508;82;21041;-86
2022/10/16 14:48:29;;;;;;;17.95;12.60;;;;;;;19.92;100.00;99268.48;2138955;83;21529;-85
2022/10/16 14:51:29;;;;;;;14.47;11.63;;;;;;;19.85;100.00;99277.39;2140598;83;21041;-85
2022/10/16 14:54:30;;;;;;;15.58;13.13;;;;;;;19.77;100.00;99275.56;2139626;83;20977;-86
2022/10/16 14:57:31;;;;;;;13.93;10.53;;;;;;;19.68;100.00;99280.89;2139008;83;21612;-86
2022/10/16 15:00:31;;;;;;;14.30;11.18;;;;;;;19.59;100.00;99283.05;2141199;83;21022;-85
2022/10/16 15:03:32;;;;;;;14.25;10.18;;;;;;;19.51;100.00;99283.32;2141102;83;20989;-84
2022/10/16 15:06:33;;;;;;;11.78;10.48;;;;;;;19.43;100.00;99294.24;2138397;83;21549;-86
2022/10/16 15:09:34;;;;;;;17.25;9.58;;;;;;;19.37;100.00;99303.09;2139270;83;21533;-88
2022/10/16 15:12:34;;;;;;;12.30;10.03;;;;;;;19.33;100.00;99304.06;2138588;83;20986;-84